sensor_id;sensor_type;location;lat;lon;timestamp;pressure;altitude;pressure_sealevel;temperature;humidity
16834;BME280;8533;48.426;10.868;2024-01-25T00:01:08;97114.06;;;6.10;100.00
16834;BME280;8533;48.426;10.868;2024-01-25T00:03:34;97203.84;;;6.67;100.00
16834;BME280;8533;48.426;10.868;2024-01-25T00:05:59;97186.44;;;6.55;100.00
16834;BME280;8533;48.426;10.868;2024-01-25T00:08:25;97176.81;;;6.48;100.00
16834;BME280;8533;48.426;10.868;2024-01-25T00:10:50;97201.06;;;6.62;100.00
16834;BME280;8533;48.426;10.868;2024-01-25T00:13:16;97143.28;;;6.26;100.00
16834;BME280;8533;48.426;10.868;2024-01-25T00:15:41;97104.81;;;6.01;100.00
16834;BME280;8533;48.426;10.868;2024-01-25T00:18:06;97161.97;;;6.42;100.00
16834;BME280;8533;48.426;10.868;2024-01-25T00:20:31;97199.00;;;6.58;100.00
16834;BME280;8533;48.426;10.868;2024-01-25T00:22:57;97118.41;;;6.03;100.00
16834;BME280;8533;48.426;10.868;2024-01-25T00:25:22;97205.63;;;6.60;100.00
16834;BME280;8533;48.426;10.868;2024-01-25T00:27:47;97177.22;;;6.52;100.00
16834;BME280;8533;48.426;10.868;2024-01-25T00:30:13;97182.66;;;6.64;100.00
16834;BME280;8533;48.426;10.868;2024-01-25T00:32:38;97181.06;;;6.63;100.00
16834;BME280;8533;48.426;10.868;2024-01-25T00:35:04;96976.03;;;5.31;100.00
16834;BME280;8533;48.426;10.868;2024-01-25T00:37:30;97181.84;;;6.57;100.00
16834;BME280;8533;48.426;10.868;2024-01-25T00:39:55;97133.72;;;6.33;100.00
16834;BME280;8533;48.426;10.868;2024-01-25T00:42:22;97069.84;;;5.97;100.00
16834;BME280;8533;48.426;10.868;2024-01-25T00:44:48;97177.47;;;6.64;100.00
16834;BME280;8533;48.426;10.868;2024-01-25T00:47:14;97148.81;;;6.57;100.00
16834;BME280;8533;48.426;10.868;2024-01-25T00:49:40;97158.06;;;6.66;100.00
16834;BME280;8533;48.426;10.868;2024-01-25T00:52:05;96942.69;;;5.28;100.00
16834;BME280;8533;48.426;10.868;2024-01-25T00:54:31;97133.03;;;6.52;100.00
16834;BME280;8533;48.426;10.868;2024-01-25T00:56:57;97121.00;;;6.44;100.00
16834;BME280;8533;48.426;10.868;2024-01-25T00:59:22;97146.84;;;6.59;100.00
16834;BME280;8533;48.426;10.868;2024-01-25T01:01:48;97138.66;;;6.62;100.00
16834;BME280;8533;48.426;10.868;2024-01-25T01:04:15;97153.50;;;6.75;100.00
16834;BME280;8533;48.426;10.868;2024-01-25T01:06:40;97156.72;;;6.83;100.00
16834;BME280;8533;48.426;10.868;2024-01-25T01:09:06;97144.31;;;6.72;100.00
16834;BME280;8533;48.426;10.868;2024-01-25T01:11:31;97098.22;;;6.46;100.00
16834;BME280;8533;48.426;10.868;2024-01-25T01:13:57;97167.53;;;6.87;100.00
16834;BME280;8533;48.426;10.868;2024-01-25T01:16:22;97149.09;;;6.82;100.00
16834;BME280;8533;48.426;10.868;2024-01-25T01:18:47;97150.53;;;6.84;100.00
16834;BME280;8533;48.426;10.868;2024-01-25T01:21:12;97171.34;;;6.91;100.00
16834;BME280;8533;48.426;10.868;2024-01-25T01:23:38;97166.31;;;6.83;100.00
16834;BME280;8533;48.426;10.868;2024-01-25T01:26:04;97188.38;;;6.94;100.00
16834;BME280;8533;48.426;10.868;2024-01-25T01:28:29;97164.94;;;6.87;100.00
16834;BME280;8533;48.426;10.868;2024-01-25T01:30:55;97163.97;;;6.95;100.00
16834;BME280;8533;48.426;10.868;2024-01-25T01:33:20;97147.53;;;6.81;100.00
16834;BME280;8533;48.426;10.868;2024-01-25T01:35:45;97181.19;;;6.96;100.00
16834;BME280;8533;48.426;10.868;2024-01-25T01:38:11;97113.84;;;6.53;100.00
16834;BME280;8533;48.426;10.868;2024-01-25T01:40:36;97109.63;;;6.52;100.00
16834;BME280;8533;48.426;10.868;2024-01-25T01:43:02;97149.72;;;6.84;100.00
16834;BME280;8533;48.426;10.868;2024-01-25T01:45:27;96944.06;;;5.59;100.00
16834;BME280;8533;48.426;10.868;2024-01-25T01:47:54;97178.16;;;6.92;100.00
16834;BME280;8533;48.426;10.868;2024-01-25T01:50:19;97131.69;;;6.69;100.00
16834;BME280;8533;48.426;10.868;2024-01-25T01:52:45;97125.88;;;6.74;100.00
16834;BME280;8533;48.426;10.868;2024-01-25T01:55:10;97076.84;;;6.44;100.00
16834;BME280;8533;48.426;10.868;2024-01-25T01:57:36;97107.06;;;6.65;100.00
16834;BME280;8533;48.426;10.868;2024-01-25T02:00:03;96926.25;;;5.49;100.00
16834;BME280;8533;48.426;10.868;2024-01-25T02:02:30;97135.13;;;6.83;100.00
16834;BME280;8533;48.426;10.868;2024-01-25T02:04:55;97117.72;;;6.77;100.00
16834;BME280;8533;48.426;10.868;2024-01-25T02:07:20;97100.03;;;6.53;100.00
16834;BME280;8533;48.426;10.868;2024-01-25T02:09:46;97114.28;;;6.70;100.00
16834;BME280;8533;48.426;10.868;2024-01-25T02:12:15;97050.41;;;6.28;100.00
16834;BME280;8533;48.426;10.868;2024-01-25T02:14:42;97072.25;;;6.46;100.00
16834;BME280;8533;48.426;10.868;2024-01-25T02:17:07;97106.88;;;6.73;100.00
16834;BME280;8533;48.426;10.868;2024-01-25T02:19:32;96903.88;;;5.42;100.00
16834;BME280;8533;48.426;10.868;2024-01-25T02:21:58;97136.34;;;6.87;100.00
16834;BME280;8533;48.426;10.868;2024-01-25T02:24:24;97076.03;;;6.50;100.00
16834;BME280;8533;48.426;10.868;2024-01-25T02:26:49;96946.25;;;5.62;100.00
16834;BME280;8533;48.426;10.868;2024-01-25T02:29:15;97119.88;;;6.73;100.00
16834;BME280;8533;48.426;10.868;2024-01-25T02:31:40;97131.53;;;6.84;100.00
16834;BME280;8533;48.426;10.868;2024-01-25T02:34:06;97121.91;;;6.78;100.00
16834;BME280;8533;48.426;10.868;2024-01-25T02:36:31;96985.34;;;5.88;100.00
16834;BME280;8533;48.426;10.868;2024-01-25T02:38:56;97095.47;;;6.55;100.00
16834;BME280;8533;48.426;10.868;2024-01-25T02:41:22;97147.94;;;6.91;100.00
16834;BME280;8533;48.426;10.868;2024-01-25T02:43:47;97134.72;;;6.79;100.00
16834;BME280;8533;48.426;10.868;2024-01-25T02:46:12;97149.97;;;6.89;100.00
16834;BME280;8533;48.426;10.868;2024-01-25T02:48:37;97117.88;;;6.69;100.00
16834;BME280;8533;48.426;10.868;2024-01-25T02:51:03;97130.31;;;6.80;100.00
16834;BME280;8533;48.426;10.868;2024-01-25T02:53:28;97122.28;;;6.75;100.00
16834;BME280;8533;48.426;10.868;2024-01-25T02:55:53;97104.28;;;6.67;100.00
16834;BME280;8533;48.426;10.868;2024-01-25T02:58:19;97126.72;;;6.81;100.00
16834;BME280;8533;48.426;10.868;2024-01-25T03:00:44;97114.50;;;6.75;100.00
16834;BME280;8533;48.426;10.868;2024-01-25T03:03:09;97079.06;;;6.54;100.00
16834;BME280;8533;48.426;10.868;2024-01-25T03:05:35;97094.72;;;6.87;100.00
16834;BME280;8533;48.426;10.868;2024-01-25T03:08:00;97082.31;;;6.82;100.00
16834;BME280;8533;48.426;10.868;2024-01-25T03:10:26;97085.91;;;6.81;100.00
16834;BME280;8533;48.426;10.868;2024-01-25T03:12:51;97092.72;;;6.82;100.00
16834;BME280;8533;48.426;10.868;2024-01-25T03:15:16;97062.69;;;6.67;100.00
16834;BME280;8533;48.426;10.868;2024-01-25T03:17:41;97109.34;;;6.88;100.00
16834;BME280;8533;48.426;10.868;2024-01-25T03:20:07;97070.47;;;6.67;100.00
16834;BME280;8533;48.426;10.868;2024-01-25T03:22:32;97085.91;;;6.81;100.00
16834;BME280;8533;48.426;10.868;2024-01-25T03:24:58;97109.97;;;6.97;100.00
16834;BME280;8533;48.426;10.868;2024-01-25T03:27:23;97065.47;;;6.65;100.00
16834;BME280;8533;48.426;10.868;2024-01-25T03:29:48;97089.09;;;6.77;100.00
16834;BME280;8533;48.426;10.868;2024-01-25T03:32:13;97021.84;;;6.34;100.00
16834;BME280;8533;48.426;10.868;2024-01-25T03:34:39;97055.66;;;6.54;100.00
16834;BME280;8533;48.426;10.868;2024-01-25T03:37:04;97113.13;;;6.92;100.00
16834;BME280;8533;48.426;10.868;2024-01-25T03:39:30;97110.09;;;6.82;100.00
16834;BME280;8533;48.426;10.868;2024-01-25T03:41:55;97130.97;;;7.02;100.00
16834;BME280;8533;48.426;10.868;2024-01-25T03:44:21;97070.09;;;6.63;100.00
16834;BME280;8533;48.426;10.868;2024-01-25T03:46:46;97027.63;;;6.36;100.00
16834;BME280;8533;48.426;10.868;2024-01-25T03:49:11;97121.38;;;7.02;100.00
16834;BME280;8533;48.426;10.868;2024-01-25T03:51:37;97087.69;;;6.74;100.00
16834;BME280;8533;48.426;10.868;2024-01-25T03:54:02;97124.53;;;6.91;100.00
16834;BME280;8533;48.426;10.868;2024-01-25T03:56:27;97032.81;;;6.30;100.00
16834;BME280;8533;48.426;10.868;2024-01-25T03:58:53;97115.31;;;6.82;100.00
16834;BME280;8533;48.426;10.868;2024-01-25T04:01:18;97157.97;;;6.94;100.00
16834;BME280;8533;48.426;10.868;2024-01-25T04:03:43;97067.84;;;6.40;100.00
16834;BME280;8533;48.426;10.868;2024-01-25T04:06:09;97131.31;;;6.79;100.00
16834;BME280;8533;48.426;10.868;2024-01-25T04:08:34;97150.16;;;6.94;100.00
16834;BME280;8533;48.426;10.868;2024-01-25T04:10:59;97070.81;;;6.37;100.00
16834;BME280;8533;48.426;10.868;2024-01-25T04:13:25;97148.94;;;6.90;100.00
16834;BME280;8533;48.426;10.868;2024-01-25T04:15:50;97145.53;;;6.83;100.00
16834;BME280;8533;48.426;10.868;2024-01-25T04:18:16;97153.13;;;6.91;100.00
16834;BME280;8533;48.426;10.868;2024-01-25T04:20:41;97079.63;;;6.43;100.00
16834;BME280;8533;48.426;10.868;2024-01-25T04:23:06;97152.94;;;6.86;100.00
16834;BME280;8533;48.426;10.868;2024-01-25T04:25:32;97141.72;;;6.85;100.00
16834;BME280;8533;48.426;10.868;2024-01-25T04:27:57;97155.75;;;6.91;100.00
16834;BME280;8533;48.426;10.868;2024-01-25T04:30:23;97155.75;;;6.91;100.00
16834;BME280;8533;48.426;10.868;2024-01-25T04:32:48;97147.31;;;6.82;100.00
16834;BME280;8533;48.426;10.868;2024-01-25T04:35:13;97138.72;;;6.82;100.00
16834;BME280;8533;48.426;10.868;2024-01-25T04:37:38;97123.09;;;6.69;100.00
16834;BME280;8533;48.426;10.868;2024-01-25T04:40:04;97158.31;;;6.84;100.00
16834;BME280;8533;48.426;10.868;2024-01-25T04:42:30;97160.47;;;6.61;100.00
16834;BME280;8533;48.426;10.868;2024-01-25T04:44:55;97176.78;;;6.96;100.00
16834;BME280;8533;48.426;10.868;2024-01-25T04:47:21;97135.09;;;6.70;100.00
16834;BME280;8533;48.426;10.868;2024-01-25T04:49:47;96956.97;;;5.46;100.00
16834;BME280;8533;48.426;10.868;2024-01-25T04:52:12;97171.31;;;6.78;100.00
16834;BME280;8533;48.426;10.868;2024-01-25T04:54:37;97180.53;;;6.80;100.00
16834;BME280;8533;48.426;10.868;2024-01-25T04:57:03;97209.53;;;6.84;100.00
16834;BME280;8533;48.426;10.868;2024-01-25T04:59:32;97220.34;;;6.87;100.00
16834;BME280;8533;48.426;10.868;2024-01-25T05:01:58;97135.16;;;6.35;100.00
16834;BME280;8533;48.426;10.868;2024-01-25T05:04:23;97162.59;;;6.51;100.00
16834;BME280;8533;48.426;10.868;2024-01-25T05:06:48;97214.09;;;6.75;100.00
16834;BME280;8533;48.426;10.868;2024-01-25T05:09:14;97219.72;;;6.79;100.00
16834;BME280;8533;48.426;10.868;2024-01-25T05:11:40;97204.47;;;6.69;100.00
16834;BME280;8533;48.426;10.868;2024-01-25T05:14:05;96991.78;;;5.30;100.00
16834;BME280;8533;48.426;10.868;2024-01-25T05:16:31;97236.50;;;6.76;100.00
16834;BME280;8533;48.426;10.868;2024-01-25T05:18:56;97241.91;;;6.81;100.00
16834;BME280;8533;48.426;10.868;2024-01-25T05:21:21;97185.81;;;6.53;100.00
16834;BME280;8533;48.426;10.868;2024-01-25T05:23:46;97203.22;;;6.59;100.00
16834;BME280;8533;48.426;10.868;2024-01-25T05:26:12;97226.69;;;6.72;100.00
16834;BME280;8533;48.426;10.868;2024-01-25T05:28:37;97178.19;;;6.44;100.00
16834;BME280;8533;48.426;10.868;2024-01-25T05:31:03;97226.25;;;6.68;100.00
16834;BME280;8533;48.426;10.868;2024-01-25T05:33:28;97233.50;;;6.73;100.00
16834;BME280;8533;48.426;10.868;2024-01-25T05:35:53;97182.16;;;6.40;100.00
16834;BME280;8533;48.426;10.868;2024-01-25T05:38:19;97194.75;;;6.43;100.00
16834;BME280;8533;48.426;10.868;2024-01-25T05:40:44;97212.78;;;6.51;100.00
16834;BME280;8533;48.426;10.868;2024-01-25T05:43:09;97228.19;;;6.53;100.00
16834;BME280;8533;48.426;10.868;2024-01-25T05:45:35;97019.25;;;5.18;100.00
16834;BME280;8533;48.426;10.868;2024-01-25T05:48:00;97218.94;;;6.44;100.00
16834;BME280;8533;48.426;10.868;2024-01-25T05:50:26;97241.81;;;6.55;100.00
16834;BME280;8533;48.426;10.868;2024-01-25T05:52:51;97202.47;;;6.24;100.00
16834;BME280;8533;48.426;10.868;2024-01-25T05:55:16;97259.34;;;6.46;100.00
16834;BME280;8533;48.426;10.868;2024-01-25T05:57:43;97265.31;;;6.40;100.00
16834;BME280;8533;48.426;10.868;2024-01-25T06:00:11;97252.94;;;6.15;100.00
16834;BME280;8533;48.426;10.868;2024-01-25T06:02:38;97208.47;;;5.96;100.00
16834;BME280;8533;48.426;10.868;2024-01-25T06:05:03;97201.63;;;5.89;100.00
16834;BME280;8533;48.426;10.868;2024-01-25T06:07:29;97243.72;;;6.12;100.00
16834;BME280;8533;48.426;10.868;2024-01-25T06:09:55;97262.53;;;6.14;100.00
16834;BME280;8533;48.426;10.868;2024-01-25T06:12:20;97279.59;;;6.02;100.00
16834;BME280;8533;48.426;10.868;2024-01-25T06:14:46;97203.16;;;5.62;100.00
16834;BME280;8533;48.426;10.868;2024-01-25T06:17:11;96993.53;;;4.25;100.00
16834;BME280;8533;48.426;10.868;2024-01-25T06:19:36;97238.69;;;5.83;100.00
16834;BME280;8533;48.426;10.868;2024-01-25T06:22:02;97270.19;;;6.01;100.00
16834;BME280;8533;48.426;10.868;2024-01-25T06:24:28;97165.75;;;5.28;100.00
16834;BME280;8533;48.426;10.868;2024-01-25T06:26:53;97226.97;;;5.65;100.00
16834;BME280;8533;48.426;10.868;2024-01-25T06:29:19;97228.31;;;5.61;100.00
16834;BME280;8533;48.426;10.868;2024-01-25T06:31:44;97293.72;;;5.93;100.00
16834;BME280;8533;48.426;10.868;2024-01-25T06:34:10;97244.63;;;5.55;100.00
16834;BME280;8533;48.426;10.868;2024-01-25T06:36:36;97295.19;;;5.81;100.00
16834;BME280;8533;48.426;10.868;2024-01-25T06:39:01;97263.78;;;5.54;100.00
16834;BME280;8533;48.426;10.868;2024-01-25T06:41:26;97307.91;;;5.75;100.00
16834;BME280;8533;48.426;10.868;2024-01-25T06:43:52;97216.06;;;5.13;100.00
16834;BME280;8533;48.426;10.868;2024-01-25T06:46:17;97292.09;;;5.49;100.00
16834;BME280;8533;48.426;10.868;2024-01-25T06:48:43;97258.13;;;5.29;100.00
16834;BME280;8533;48.426;10.868;2024-01-25T06:51:08;97341.56;;;5.69;100.00
16834;BME280;8533;48.426;10.868;2024-01-25T06:53:33;97322.00;;;5.66;100.00
16834;BME280;8533;48.426;10.868;2024-01-25T06:55:59;97216.91;;;4.98;100.00
16834;BME280;8533;48.426;10.868;2024-01-25T06:58:25;97292.03;;;5.43;100.00
16834;BME280;8533;48.426;10.868;2024-01-25T07:00:50;97199.97;;;4.81;100.00
16834;BME280;8533;48.426;10.868;2024-01-25T07:03:16;97344.00;;;5.70;100.00
16834;BME280;8533;48.426;10.868;2024-01-25T07:05:41;97329.97;;;5.65;100.00
16834;BME280;8533;48.426;10.868;2024-01-25T07:08:06;97285.16;;;5.35;100.00
16834;BME280;8533;48.426;10.868;2024-01-25T07:10:34;97322.13;;;5.58;100.00
16834;BME280;8533;48.426;10.868;2024-01-25T07:12:59;97344.16;;;5.69;100.00
16834;BME280;8533;48.426;10.868;2024-01-25T07:15:25;97351.78;;;5.70;100.00
16834;BME280;8533;48.426;10.868;2024-01-25T07:17:50;97326.06;;;5.54;100.00
16834;BME280;8533;48.426;10.868;2024-01-25T07:20:15;97373.47;;;5.84;100.00
16834;BME280;8533;48.426;10.868;2024-01-25T07:22:41;97375.09;;;5.85;100.00
16834;BME280;8533;48.426;10.868;2024-01-25T07:25:06;97351.41;;;5.73;100.00
16834;BME280;8533;48.426;10.868;2024-01-25T07:27:32;97370.53;;;5.87;100.00
16834;BME280;8533;48.426;10.868;2024-01-25T07:29:57;97375.56;;;5.89;100.00
16834;BME280;8533;48.426;10.868;2024-01-25T07:32:22;97370.28;;;5.82;100.00
16834;BME280;8533;48.426;10.868;2024-01-25T07:34:50;97366.31;;;5.86;100.00
16834;BME280;8533;48.426;10.868;2024-01-25T07:37:16;97406.16;;;5.93;100.00
16834;BME280;8533;48.426;10.868;2024-01-25T07:39:43;97385.22;;;5.95;100.00
16834;BME280;8533;48.426;10.868;2024-01-25T07:42:09;97393.28;;;6.00;100.00
16834;BME280;8533;48.426;10.868;2024-01-25T07:44:34;97199.00;;;4.82;100.00
16834;BME280;8533;48.426;10.868;2024-01-25T07:47:00;97377.94;;;6.05;100.00
16834;BME280;8533;48.426;10.868;2024-01-25T07:49:25;97350.81;;;5.93;100.00
16834;BME280;8533;48.426;10.868;2024-01-25T07:51:51;97380.94;;;6.08;100.00
16834;BME280;8533;48.426;10.868;2024-01-25T07:54:16;97369.69;;;6.01;100.00
16834;BME280;8533;48.426;10.868;2024-01-25T07:56:42;97359.34;;;5.87;100.00
16834;BME280;8533;48.426;10.868;2024-01-25T07:59:07;97351.72;;;5.85;100.00
16834;BME280;8533;48.426;10.868;2024-01-25T08:01:32;97400.88;;;6.23;100.00
16834;BME280;8533;48.426;10.868;2024-01-25T08:03:58;97390.44;;;6.16;100.00
16834;BME280;8533;48.426;10.868;2024-01-25T08:06:25;97374.06;;;6.01;100.00
16834;BME280;8533;48.426;10.868;2024-01-25T08:08:51;97374.56;;;6.11;100.00
16834;BME280;8533;48.426;10.868;2024-01-25T08:11:16;97391.16;;;6.10;100.00
16834;BME280;8533;48.426;10.868;2024-01-25T08:13:44;97427.91;;;6.28;100.00
16834;BME280;8533;48.426;10.868;2024-01-25T08:16:10;97333.19;;;5.67;100.00
16834;BME280;8533;48.426;10.868;2024-01-25T08:18:36;97402.78;;;6.14;100.00
16834;BME280;8533;48.426;10.868;2024-01-25T08:21:01;97336.34;;;5.84;100.00
16834;BME280;8533;48.426;10.868;2024-01-25T08:23:26;97396.72;;;6.28;100.00
16834;BME280;8533;48.426;10.868;2024-01-25T08:25:52;97402.16;;;6.33;100.00
16834;BME280;8533;48.426;10.868;2024-01-25T08:28:18;97317.38;;;5.83;100.00
16834;BME280;8533;48.426;10.868;2024-01-25T08:30:45;97406.81;;;6.38;100.00
16834;BME280;8533;48.426;10.868;2024-01-25T08:33:10;97401.78;;;6.36;100.00
16834;BME280;8533;48.426;10.868;2024-01-25T08:35:36;97392.81;;;6.39;100.00
16834;BME280;8533;48.426;10.868;2024-01-25T08:38:01;97424.78;;;6.61;100.00
16834;BME280;8533;48.426;10.868;2024-01-25T08:40:27;97361.72;;;6.24;100.00
16834;BME280;8533;48.426;10.868;2024-01-25T08:42:53;97415.00;;;6.63;100.00
16834;BME280;8533;48.426;10.868;2024-01-25T08:45:18;97431.94;;;6.80;100.00
16834;BME280;8533;48.426;10.868;2024-01-25T08:47:44;97431.22;;;6.93;100.00
16834;BME280;8533;48.426;10.868;2024-01-25T08:50:11;97435.28;;;7.02;100.00
16834;BME280;8533;48.426;10.868;2024-01-25T08:52:37;97407.97;;;6.84;100.00
16834;BME280;8533;48.426;10.868;2024-01-25T08:55:04;97193.28;;;5.08;100.00
16834;BME280;8533;48.426;10.868;2024-01-25T08:57:30;97434.31;;;7.03;100.00
16834;BME280;8533;48.426;10.868;2024-01-25T08:59:55;97444.88;;;7.01;100.00
16834;BME280;8533;48.426;10.868;2024-01-25T09:02:23;97182.78;;;5.37;100.00
16834;BME280;8533;48.426;10.868;2024-01-25T09:04:52;97454.53;;;7.07;100.00
16834;BME280;8533;48.426;10.868;2024-01-25T09:07:19;97226.69;;;5.60;100.00
16834;BME280;8533;48.426;10.868;2024-01-25T09:09:44;97473.88;;;7.26;100.00
16834;BME280;8533;48.426;10.868;2024-01-25T09:12:09;97368.41;;;6.61;100.00
16834;BME280;8533;48.426;10.868;2024-01-25T09:14:36;97475.53;;;7.34;100.00
16834;BME280;8533;48.426;10.868;2024-01-25T09:17:02;97454.84;;;7.25;100.00
16834;BME280;8533;48.426;10.868;2024-01-25T09:19:27;97483.97;;;7.42;100.00
16834;BME280;8533;48.426;10.868;2024-01-25T09:21:53;97482.88;;;7.58;100.00
16834;BME280;8533;48.426;10.868;2024-01-25T09:24:18;97464.66;;;7.58;100.00
16834;BME280;8533;48.426;10.868;2024-01-25T09:26:43;97368.09;;;7.05;100.00
16834;BME280;8533;48.426;10.868;2024-01-25T09:29:08;97458.13;;;7.75;100.00
16834;BME280;8533;48.426;10.868;2024-01-25T09:31:34;97441.69;;;7.81;100.00
16834;BME280;8533;48.426;10.868;2024-01-25T09:34:00;97437.69;;;7.79;100.00
16834;BME280;8533;48.426;10.868;2024-01-25T09:36:25;97442.13;;;7.78;100.00
16834;BME280;8533;48.426;10.868;2024-01-25T09:38:50;97431.47;;;7.73;100.00
16834;BME280;8533;48.426;10.868;2024-01-25T09:41:16;97400.19;;;7.66;100.00
16834;BME280;8533;48.426;10.868;2024-01-25T09:43:41;97427.69;;;7.82;100.00
16834;BME280;8533;48.426;10.868;2024-01-25T09:46:07;97400.22;;;7.73;100.00
16834;BME280;8533;48.426;10.868;2024-01-25T09:48:32;97411.63;;;7.72;100.00
16834;BME280;8533;48.426;10.868;2024-01-25T09:50:58;97404.38;;;7.61;100.00
16834;BME280;8533;48.426;10.868;2024-01-25T09:53:24;97387.53;;;7.57;100.00
16834;BME280;8533;48.426;10.868;2024-01-25T09:56:10;97446.38;;;7.92;100.00
16834;BME280;8533;48.426;10.868;2024-01-25T09:58:41;97442.94;;;7.92;100.00
16834;BME280;8533;48.426;10.868;2024-01-25T10:01:14;97424.88;;;7.77;100.00
16834;BME280;8533;48.426;10.868;2024-01-25T10:03:43;97443.94;;;7.84;100.00
16834;BME280;8533;48.426;10.868;2024-01-25T10:06:10;97449.34;;;7.89;100.00
16834;BME280;8533;48.426;10.868;2024-01-25T10:08:36;97423.25;;;7.70;100.00
16834;BME280;8533;48.426;10.868;2024-01-25T10:11:02;97427.81;;;7.61;100.00
16834;BME280;8533;48.426;10.868;2024-01-25T10:13:28;97384.06;;;7.37;100.00
16834;BME280;8533;48.426;10.868;2024-01-25T10:15:53;97425.00;;;7.62;100.00
16834;BME280;8533;48.426;10.868;2024-01-25T10:18:21;97450.69;;;7.72;100.00
16834;BME280;8533;48.426;10.868;2024-01-25T10:20:47;97428.97;;;7.52;100.00
16834;BME280;8533;48.426;10.868;2024-01-25T10:23:12;97381.50;;;7.50;100.00
16834;BME280;8533;48.426;10.868;2024-01-25T10:25:38;97440.16;;;7.93;100.00
16834;BME280;8533;48.426;10.868;2024-01-25T10:28:04;97430.13;;;7.90;100.00
16834;BME280;8533;48.426;10.868;2024-01-25T10:30:32;97291.59;;;6.93;100.00
16834;BME280;8533;48.426;10.868;2024-01-25T10:32:59;97345.78;;;7.31;100.00
16834;BME280;8533;48.426;10.868;2024-01-25T10:35:26;97122.25;;;6.07;100.00
16834;BME280;8533;48.426;10.868;2024-01-25T10:37:52;97424.56;;;8.13;100.00
16834;BME280;8533;48.426;10.868;2024-01-25T10:40:19;97417.78;;;8.25;100.00
16834;BME280;8533;48.426;10.868;2024-01-25T10:42:44;97376.47;;;8.02;100.00
16834;BME280;8533;48.426;10.868;2024-01-25T10:45:10;97400.66;;;7.96;100.00
16834;BME280;8533;48.426;10.868;2024-01-25T10:47:36;97440.19;;;8.07;100.00
16834;BME280;8533;48.426;10.868;2024-01-25T10:50:03;97429.75;;;8.00;100.00
16834;BME280;8533;48.426;10.868;2024-01-25T10:52:30;97419.97;;;8.15;100.00
16834;BME280;8533;48.426;10.868;2024-01-25T10:54:57;97405.88;;;8.03;100.00
16834;BME280;8533;48.426;10.868;2024-01-25T10:57:22;97360.56;;;7.78;100.00
16834;BME280;8533;48.426;10.868;2024-01-25T10:59:48;97309.78;;;7.41;100.00
16834;BME280;8533;48.426;10.868;2024-01-25T11:02:13;97408.09;;;7.99;100.00
16834;BME280;8533;48.426;10.868;2024-01-25T11:04:39;97398.44;;;7.87;100.00
16834;BME280;8533;48.426;10.868;2024-01-25T11:07:06;97427.84;;;7.74;100.00
16834;BME280;8533;48.426;10.868;2024-01-25T11:09:33;97389.22;;;7.84;100.00
16834;BME280;8533;48.426;10.868;2024-01-25T11:12:00;97413.94;;;8.01;100.00
16834;BME280;8533;48.426;10.868;2024-01-25T11:14:25;97197.28;;;6.71;100.00
16834;BME280;8533;48.426;10.868;2024-01-25T11:16:51;97406.13;;;8.08;100.00
16834;BME280;8533;48.426;10.868;2024-01-25T11:19:21;97371.63;;;7.99;100.00
16834;BME280;8533;48.426;10.868;2024-01-25T11:21:48;97404.56;;;8.27;100.00
16834;BME280;8533;48.426;10.868;2024-01-25T11:24:21;97396.78;;;8.40;100.00
16834;BME280;8533;48.426;10.868;2024-01-25T11:26:47;97374.13;;;8.34;100.00
16834;BME280;8533;48.426;10.868;2024-01-25T11:29:14;97371.88;;;8.24;99.59
16834;BME280;8533;48.426;10.868;2024-01-25T11:31:42;97391.75;;;8.38;96.97
16834;BME280;8533;48.426;10.868;2024-01-25T11:34:10;97151.94;;;6.87;96.29
16834;BME280;8533;48.426;10.868;2024-01-25T11:36:36;97302.47;;;7.84;96.38
16834;BME280;8533;48.426;10.868;2024-01-25T11:39:01;97359.28;;;8.34;97.35
16834;BME280;8533;48.426;10.868;2024-01-25T11:41:26;97365.28;;;8.35;95.52
16834;BME280;8533;48.426;10.868;2024-01-25T11:43:52;97392.97;;;8.49;93.61
16834;BME280;8533;48.426;10.868;2024-01-25T11:46:18;97372.09;;;8.56;93.97
16834;BME280;8533;48.426;10.868;2024-01-25T11:48:43;97381.13;;;8.79;91.87
16834;BME280;8533;48.426;10.868;2024-01-25T11:51:10;97370.28;;;8.83;91.56
16834;BME280;8533;48.426;10.868;2024-01-25T11:53:38;97257.19;;;8.04;90.28
16834;BME280;8533;48.426;10.868;2024-01-25T11:56:07;97360.06;;;8.74;89.02
16834;BME280;8533;48.426;10.868;2024-01-25T11:58:33;97324.16;;;8.43;91.56
16834;BME280;8533;48.426;10.868;2024-01-25T12:01:00;97348.63;;;8.62;91.96
16834;BME280;8533;48.426;10.868;2024-01-25T12:03:26;97278.63;;;8.20;93.75
16834;BME280;8533;48.426;10.868;2024-01-25T12:05:51;97344.00;;;8.64;93.90
16834;BME280;8533;48.426;10.868;2024-01-25T12:08:17;97316.34;;;8.43;93.83
16834;BME280;8533;48.426;10.868;2024-01-25T12:10:42;97362.66;;;8.68;93.41
16834;BME280;8533;48.426;10.868;2024-01-25T12:13:08;97363.25;;;8.76;94.08
16834;BME280;8533;48.426;10.868;2024-01-25T12:15:35;97369.69;;;8.80;94.20
16834;BME280;8533;48.426;10.868;2024-01-25T12:18:00;97131.59;;;7.43;93.27
16834;BME280;8533;48.426;10.868;2024-01-25T12:20:27;97318.13;;;8.63;94.50
16834;BME280;8533;48.426;10.868;2024-01-25T12:22:53;97310.09;;;8.71;95.52
16834;BME280;8533;48.426;10.868;2024-01-25T12:25:18;97334.94;;;8.87;95.54
16834;BME280;8533;48.426;10.868;2024-01-25T12:27:43;97285.66;;;8.59;96.04
16834;BME280;8533;48.426;10.868;2024-01-25T12:30:12;97312.88;;;8.83;95.05
16834;BME280;8533;48.426;10.868;2024-01-25T12:32:37;97351.53;;;9.12;97.51
16834;BME280;8533;48.426;10.868;2024-01-25T12:35:03;97258.97;;;8.57;96.65
16834;BME280;8533;48.426;10.868;2024-01-25T12:37:31;97342.91;;;9.11;97.78
16834;BME280;8533;48.426;10.868;2024-01-25T12:39:57;97309.06;;;8.85;95.71
16834;BME280;8533;48.426;10.868;2024-01-25T12:42:22;97161.00;;;7.90;96.90
16834;BME280;8533;48.426;10.868;2024-01-25T12:44:51;97342.09;;;9.11;98.15
16834;BME280;8533;48.426;10.868;2024-01-25T12:47:16;97293.97;;;8.94;95.41
16834;BME280;8533;48.426;10.868;2024-01-25T12:49:43;97340.25;;;9.31;95.08
16834;BME280;8533;48.426;10.868;2024-01-25T12:52:09;97248.44;;;8.90;92.40
16834;BME280;8533;48.426;10.868;2024-01-25T12:54:36;97338.16;;;9.46;90.63